createdAt,value
2023-07-26T00:00:37.132Z,98095.25
2023-07-26T00:03:04.343Z,98093.41
2023-07-26T00:05:32.364Z,98103.13
2023-07-26T00:07:59.569Z,98096.88
2023-07-26T00:10:26.814Z,98094.53
2023-07-26T00:12:54.080Z,98087.09
2023-07-26T00:15:21.169Z,98079.25
2023-07-26T00:17:48.587Z,98089.22
2023-07-26T00:20:15.630Z,98103.66
2023-07-26T00:22:42.748Z,98087.09
2023-07-26T00:25:10.048Z,98072.22
2023-07-26T00:27:37.196Z,98092.84
2023-07-26T00:30:07.039Z,98080.31
2023-07-26T00:32:34.833Z,98091.28
2023-07-26T00:35:04.390Z,98074.56
2023-07-26T00:37:32.213Z,98056.78
2023-07-26T00:39:59.553Z,98073.00
2023-07-26T00:42:26.979Z,98073.00
2023-07-26T00:44:54.257Z,98049.16
2023-07-26T00:47:21.670Z,98075.75
2023-07-26T00:49:51.009Z,98061.94
2023-07-26T00:52:18.870Z,98076.72
2023-07-26T00:54:46.121Z,98076.00
2023-07-26T00:57:14.078Z,98070.69
2023-07-26T00:59:41.274Z,98050.88
2023-07-26T01:02:08.501Z,98061.94
2023-07-26T01:04:35.590Z,98073.44
2023-07-26T01:07:13.109Z,98070.53
2023-07-26T01:10:17.781Z,98064.31
2023-07-26T01:12:55.401Z,98054.28
2023-07-26T01:15:30.320Z,98056.69
2023-07-26T01:18:17.625Z,98052.25
2023-07-26T01:20:45.792Z,98028.97
2023-07-26T01:23:12.946Z,98025.72
2023-07-26T01:25:40.385Z,98037.72
2023-07-26T01:28:07.520Z,98041.16
2023-07-26T01:30:35.726Z,98028.38
2023-07-26T01:33:06.598Z,98017.88
2023-07-26T01:35:36.692Z,98016.44
2023-07-26T01:38:05.036Z,98022.63
2023-07-26T01:40:33.909Z,98024.75
2023-07-26T01:43:02.056Z,98036.16
2023-07-26T01:45:29.440Z,98032.56
2023-07-26T01:47:56.691Z,98014.56
2023-07-26T01:50:24.402Z,98045.78
2023-07-26T01:52:52.236Z,98037.72
2023-07-26T01:55:19.408Z,98020.38
2023-07-26T01:57:47.797Z,98025.50
2023-07-26T02:00:15.141Z,98022.25
2023-07-26T02:02:42.331Z,98043.81
2023-07-26T02:05:11.177Z,98021.31
2023-07-26T02:07:39.032Z,98016.94
2023-07-26T02:10:06.405Z,98032.22
2023-07-26T02:12:33.666Z,98018.47
2023-07-26T02:15:01.081Z,98029.47
2023-07-26T02:17:33.216Z,98009.34
2023-07-26T02:20:20.368Z,98024.06
2023-07-26T02:22:47.387Z,98024.97
2023-07-26T02:25:14.560Z,98022.13
2023-07-26T02:27:41.933Z,97984.56
2023-07-26T02:30:09.656Z,98011.84
2023-07-26T02:32:36.910Z,98040.41
2023-07-26T02:35:04.246Z,98042.16
2023-07-26T02:37:31.567Z,98033.22
2023-07-26T02:39:58.624Z,98028.06
2023-07-26T02:42:28.493Z,98030.72
2023-07-26T02:44:55.889Z,98018.72
2023-07-26T02:47:23.016Z,98004.78
2023-07-26T02:49:50.185Z,97995.47
2023-07-26T02:52:17.252Z,98031.13
2023-07-26T02:54:44.437Z,98034.56
2023-07-26T02:57:11.628Z,98025.63
2023-07-26T02:59:38.707Z,98035.72
2023-07-26T03:02:06.014Z,98027.34
2023-07-26T03:04:33.274Z,98011.59
2023-07-26T03:07:01.228Z,98030.22
2023-07-26T03:09:28.290Z,98021.81
2023-07-26T03:11:55.517Z,98033.72
2023-07-26T03:14:22.677Z,98021.81
2023-07-26T03:16:49.795Z,98024.91
2023-07-26T03:19:16.957Z,98030.72
2023-07-26T03:21:43.984Z,98046.16
2023-07-26T03:24:11.160Z,98026.94
2023-07-26T03:26:38.340Z,98043.97
2023-07-26T03:29:05.461Z,98034.28
2023-07-26T03:31:32.539Z,98023.59
2023-07-26T03:33:59.741Z,98044.22
2023-07-26T03:36:27.625Z,98021.34
2023-07-26T03:38:54.671Z,98023.81
2023-07-26T03:41:21.718Z,98041.56
2023-07-26T03:43:48.938Z,98028.31
2023-07-26T03:46:16.136Z,98020.22
2023-07-26T03:48:43.254Z,98014.69
2023-07-26T03:51:10.371Z,98023.94
2023-07-26T03:53:37.748Z,98021.44
2023-07-26T03:56:05.058Z,97993.91
2023-07-26T03:58:33.483Z,98003.22
2023-07-26T04:01:00.565Z,97995.78
2023-07-26T04:03:27.802Z,97995.00
2023-07-26T04:05:55.119Z,97965.44
2023-07-26T04:08:22.324Z,97989.97
2023-07-26T04:10:49.520Z,97978.34
2023-07-26T04:13:17.053Z,97988.13
2023-07-26T04:15:44.259Z,97981.69
2023-07-26T04:18:11.774Z,97984.72
2023-07-26T04:20:38.824Z,97967.19
2023-07-26T04:23:06.111Z,97974.69
2023-07-26T04:25:33.224Z,97988.38
2023-07-26T04:28:00.312Z,97972.16
2023-07-26T04:30:27.480Z,97966.38
2023-07-26T04:32:54.717Z,97982.25
2023-07-26T04:35:21.825Z,97986.00
2023-07-26T04:37:48.980Z,97982.31
2023-07-26T04:40:16.153Z,97976.09
2023-07-26T04:42:43.239Z,97971.00
2023-07-26T04:45:10.733Z,97972.19
2023-07-26T04:47:37.965Z,97950.69
2023-07-26T04:50:05.574Z,97959.34
2023-07-26T04:52:34.710Z,97963.09
2023-07-26T04:55:01.856Z,97948.97
2023-07-26T04:57:31.021Z,97953.16
2023-07-26T04:59:58.146Z,97973.13
2023-07-26T05:02:25.331Z,97936.75
2023-07-26T05:04:52.472Z,97948.72
2023-07-26T05:07:19.574Z,97944.09
2023-07-26T05:09:46.839Z,97957.94
2023-07-26T05:12:14.049Z,97957.84
2023-07-26T05:14:42.652Z,97916.31
2023-07-26T05:17:09.849Z,97934.41
2023-07-26T05:19:37.053Z,97919.84
2023-07-26T05:22:04.272Z,97930.50
2023-07-26T05:24:31.418Z,97912.97
2023-07-26T05:26:59.511Z,97902.16
2023-07-26T05:29:26.986Z,97906.41
2023-07-26T05:31:54.136Z,97920.03
2023-07-26T05:34:21.286Z,97919.78
2023-07-26T05:36:48.397Z,97917.97
2023-07-26T05:39:15.490Z,97925.38
2023-07-26T05:41:42.680Z,97927.84
2023-07-26T05:44:09.790Z,97923.44
2023-07-26T05:46:36.843Z,97892.88
2023-07-26T05:49:03.922Z,97902.63
2023-07-26T05:51:31.338Z,97909.16
2023-07-26T05:53:58.732Z,97907.25
2023-07-26T05:56:25.835Z,97911.22
2023-07-26T05:58:53.081Z,97912.28
2023-07-26T06:01:20.356Z,97915.38
2023-07-26T06:03:47.542Z,97934.81
2023-07-26T06:06:14.917Z,97904.78
2023-07-26T06:08:42.209Z,97876.00
2023-07-26T06:11:09.334Z,97915.38
2023-07-26T06:13:36.587Z,97915.72
2023-07-26T06:16:03.984Z,97915.78
2023-07-26T06:18:31.160Z,97922.19
2023-07-26T06:20:58.349Z,97917.78
2023-07-26T06:23:25.359Z,97908.44
2023-07-26T06:25:52.569Z,97916.44
2023-07-26T06:28:19.653Z,97906.53
2023-07-26T06:30:46.757Z,97905.06
2023-07-26T06:33:13.923Z,97901.22
2023-07-26T06:35:41.106Z,97897.13
2023-07-26T06:38:10.316Z,97874.19
2023-07-26T06:40:37.463Z,97866.81
2023-07-26T06:43:04.636Z,97868.34
2023-07-26T06:45:31.829Z,97781.28
2023-07-26T06:47:59.162Z,97851.13
2023-07-26T06:50:26.319Z,97847.91
2023-07-26T06:52:53.418Z,97847.03
2023-07-26T06:55:20.513Z,97848.88
2023-07-26T06:57:47.698Z,97831.25
2023-07-26T07:00:17.115Z,97834.44
2023-07-26T07:02:44.343Z,97838.94
2023-07-26T07:05:12.828Z,97837.81
2023-07-26T07:07:39.943Z,97832.69
2023-07-26T07:10:07.620Z,97830.72
2023-07-26T07:12:34.778Z,97836.66
2023-07-26T07:15:01.926Z,97841.25
2023-07-26T07:17:33.428Z,97841.59
2023-07-26T07:20:00.721Z,97833.44
2023-07-26T07:22:28.611Z,97835.84
2023-07-26T07:24:55.851Z,97827.03
2023-07-26T07:27:23.066Z,97819.38
2023-07-26T07:29:50.676Z,97830.25
2023-07-26T07:32:22.227Z,97825.00
2023-07-26T07:34:50.723Z,97782.91
2023-07-26T07:37:18.002Z,97817.69
2023-07-26T07:39:45.148Z,97823.63
2023-07-26T07:42:12.318Z,97814.28
2023-07-26T07:44:39.663Z,97802.78
2023-07-26T07:47:09.598Z,97813.88
2023-07-26T07:49:38.956Z,97796.69
2023-07-26T07:52:06.621Z,97825.34
2023-07-26T07:54:33.744Z,97805.06
2023-07-26T07:57:01.111Z,97819.00
2023-07-26T07:59:28.279Z,97822.16
2023-07-26T08:01:55.335Z,97827.41
2023-07-26T08:04:22.541Z,97816.34
2023-07-26T08:06:50.216Z,97830.78
2023-07-26T08:09:17.455Z,97808.47
2023-07-26T08:11:44.572Z,97808.56
2023-07-26T08:14:11.653Z,97808.53
2023-07-26T08:16:38.905Z,97834.31
2023-07-26T08:19:06.091Z,97827.69
2023-07-26T08:21:33.507Z,97818.19
2023-07-26T08:24:00.706Z,97825.81
2023-07-26T08:26:28.038Z,97832.84
2023-07-26T08:28:55.132Z,97836.91
2023-07-26T08:31:22.322Z,97811.44
2023-07-26T08:33:49.489Z,97821.91
2023-07-26T08:36:16.600Z,97838.97
2023-07-26T08:38:43.711Z,97839.03
2023-07-26T08:41:11.358Z,97812.22
2023-07-26T08:43:39.272Z,97813.47
2023-07-26T08:46:08.664Z,97839.84
2023-07-26T08:48:38.114Z,97813.00
2023-07-26T08:51:06.711Z,97823.69
2023-07-26T08:53:35.019Z,97813.09
2023-07-26T08:56:02.437Z,97792.66
2023-07-26T08:58:30.039Z,97786.25
2023-07-26T09:00:58.929Z,97761.72
2023-07-26T09:03:26.328Z,97759.44
2023-07-26T09:06:07.918Z,97752.91
2023-07-26T09:08:35.547Z,97763.13
2023-07-26T09:11:19.245Z,97741.00
2023-07-26T09:13:53.067Z,97706.72
2023-07-26T09:16:20.974Z,97715.78
2023-07-26T09:19:05.762Z,97707.88
2023-07-26T09:21:37.529Z,97732.56
2023-07-26T09:24:05.562Z,97699.44
2023-07-26T09:26:41.133Z,97702.84
2023-07-26T09:29:10.115Z,97723.34
2023-07-26T09:31:38.324Z,97700.56
2023-07-26T09:34:08.248Z,97711.34
2023-07-26T09:36:51.601Z,97708.75
2023-07-26T09:39:20.670Z,97716.97
2023-07-26T09:41:48.319Z,97718.09
2023-07-26T09:44:20.455Z,97683.22
2023-07-26T09:46:56.641Z,97716.88
2023-07-26T09:49:28.827Z,97701.84
2023-07-26T09:54:34.214Z,97722.00
2023-07-26T09:57:02.527Z,97714.31
2023-07-26T09:59:31.678Z,97701.50
2023-07-26T10:02:03.889Z,97699.22
2023-07-26T10:04:51.588Z,97703.50
2023-07-26T10:07:20.026Z,97693.25
2023-07-26T10:09:49.221Z,97669.28
2023-07-26T10:12:16.731Z,97695.50
2023-07-26T10:14:44.074Z,97688.16
2023-07-26T10:17:14.402Z,97694.97
2023-07-26T10:19:42.961Z,97708.91
2023-07-26T10:22:12.323Z,97704.66
2023-07-26T10:24:43.632Z,97702.72
2023-07-26T10:27:11.483Z,97684.91
2023-07-26T10:29:38.804Z,97715.78
2023-07-26T10:32:08.262Z,97706.47
2023-07-26T10:34:35.927Z,97700.09
2023-07-26T10:37:20.385Z,97705.88
2023-07-26T10:39:50.484Z,97674.28
2023-07-26T10:42:30.642Z,97675.81
2023-07-26T10:45:03.687Z,97670.25
2023-07-26T10:47:34.048Z,97665.75
2023-07-26T10:50:10.752Z,97649.97
2023-07-26T10:52:38.907Z,97645.06
2023-07-26T10:55:28.404Z,97646.75
2023-07-26T10:57:59.166Z,97621.81
2023-07-26T11:00:36.355Z,97640.56
2023-07-26T11:03:04.423Z,97655.81
2023-07-26T11:05:32.046Z,97675.06
2023-07-26T11:08:01.939Z,97684.88
2023-07-26T11:10:32.959Z,97666.16
2023-07-26T11:13:17.217Z,97662.84
2023-07-26T11:16:12.037Z,97677.72
2023-07-26T11:18:41.554Z,97641.47
2023-07-26T11:21:15.572Z,97672.59
2023-07-26T11:23:42.796Z,97657.63
2023-07-26T11:26:09.977Z,97645.47
2023-07-26T11:28:37.203Z,97685.16
2023-07-26T11:31:04.450Z,97661.00
2023-07-26T11:33:32.899Z,97664.03
2023-07-26T11:36:02.296Z,97640.97
2023-07-26T11:38:29.958Z,97661.69
2023-07-26T11:40:57.630Z,97667.63
2023-07-26T11:43:27.393Z,97669.94
2023-07-26T11:45:56.720Z,97669.25
2023-07-26T11:48:25.984Z,97676.31
2023-07-26T11:50:56.893Z,97685.31
2023-07-26T11:53:43.112Z,97665.28
2023-07-26T11:56:12.485Z,97705.00
2023-07-26T11:58:39.848Z,97714.06
2023-07-26T12:01:07.559Z,97716.88
2023-07-26T12:03:36.968Z,97689.66
2023-07-26T12:06:08.880Z,97688.09
2023-07-26T12:08:39.117Z,97675.53
2023-07-26T12:11:08.146Z,97712.91
2023-07-26T12:13:37.398Z,97707.50
2023-07-26T12:16:05.632Z,97705.75
2023-07-26T12:18:33.413Z,97692.19
2023-07-26T12:21:13.105Z,97697.78
2023-07-26T12:23:53.348Z,97696.78
2023-07-26T12:26:23.309Z,97695.19
2023-07-26T12:28:55.539Z,97698.91
2023-07-26T12:31:26.481Z,97683.97
2023-07-26T12:34:07.911Z,97661.94
2023-07-26T12:36:43.847Z,97690.75
2023-07-26T12:39:13.146Z,97682.25
2023-07-26T12:41:44.235Z,97647.28
2023-07-26T12:44:15.411Z,97640.16
2023-07-26T12:49:14.323Z,97658.59
2023-07-26T12:51:41.626Z,97656.69
2023-07-26T12:54:09.606Z,97653.00
2023-07-26T12:56:37.287Z,97668.28
2023-07-26T12:59:08.674Z,97665.44
2023-07-26T13:01:40.264Z,97633.97
2023-07-26T13:04:09.271Z,97658.09
2023-07-26T13:06:38.012Z,97643.91
2023-07-26T13:09:06.454Z,97638.69
2023-07-26T13:11:33.975Z,97639.22
2023-07-26T13:14:01.522Z,97653.53
2023-07-26T13:16:31.804Z,97664.84
2023-07-26T13:19:04.185Z,97671.47
2023-07-26T13:21:32.552Z,97652.69
2023-07-26T13:24:00.387Z,97651.69
2023-07-26T13:26:28.613Z,97656.50
2023-07-26T13:28:55.983Z,97651.91
2023-07-26T13:31:23.246Z,97666.25
2023-07-26T13:33:52.077Z,97672.09
2023-07-26T13:36:22.441Z,97666.03
2023-07-26T13:38:49.654Z,97661.19
2023-07-26T13:41:16.956Z,97675.94
2023-07-26T13:43:44.126Z,97648.44
2023-07-26T13:46:38.273Z,97655.22
2023-07-26T13:48:58.364Z,97665.56
2023-07-26T13:51:25.665Z,97665.00
2023-07-26T13:53:52.913Z,97652.38
2023-07-26T13:56:20.146Z,97658.38
2023-07-26T13:58:48.975Z,97652.41
2023-07-26T14:01:17.798Z,97666.84
2023-07-26T14:03:45.330Z,97677.63
2023-07-26T14:06:12.584Z,97654.25
2023-07-26T14:08:39.756Z,97661.47
2023-07-26T14:11:07.175Z,97667.22
2023-07-26T14:13:34.467Z,97669.03
2023-07-26T14:18:32.452Z,97667.53
2023-07-26T14:21:00.159Z,97670.00
2023-07-26T14:23:31.428Z,97700.78
2023-07-26T14:25:58.844Z,97671.94
2023-07-26T14:28:26.239Z,97695.03
2023-07-26T14:30:53.488Z,97692.94
2023-07-26T14:33:20.939Z,97691.34
2023-07-26T14:35:49.020Z,97704.00
2023-07-26T14:38:16.401Z,97688.34
2023-07-26T14:40:43.540Z,97687.84
2023-07-26T14:43:10.726Z,97707.50
2023-07-26T14:45:37.978Z,97680.50
2023-07-26T14:48:05.463Z,97688.28
2023-07-26T14:50:32.837Z,97683.16
2023-07-26T14:53:00.380Z,97699.31
2023-07-26T14:55:29.823Z,97666.16
2023-07-26T14:57:58.158Z,97672.22
2023-07-26T15:00:25.760Z,97652.00
2023-07-26T15:02:53.178Z,97668.44
2023-07-26T15:05:20.378Z,97660.69
2023-07-26T15:07:47.862Z,97662.56
2023-07-26T15:10:16.378Z,97648.84
2023-07-26T15:12:46.583Z,97656.91
2023-07-26T15:15:14.446Z,97677.06
2023-07-26T15:17:41.624Z,97669.28
2023-07-26T15:20:09.940Z,97673.13
2023-07-26T15:22:37.213Z,97670.19
2023-07-26T15:25:05.033Z,97662.25
2023-07-26T15:27:32.875Z,97658.72
2023-07-26T15:30:01.248Z,97679.47
2023-07-26T15:32:30.239Z,97675.94
2023-07-26T15:34:58.034Z,97647.69
2023-07-26T15:37:25.102Z,97670.56
2023-07-26T15:39:52.375Z,97674.06
2023-07-26T15:47:19.882Z,97671.03
2023-07-26T15:49:55.885Z,97642.41
2023-07-26T15:52:23.720Z,97656.59
2023-07-26T15:54:50.807Z,97640.59
2023-07-26T15:57:18.028Z,97638.03
2023-07-26T15:59:45.102Z,97629.94
2023-07-26T16:02:13.554Z,97647.81
2023-07-26T16:07:11.301Z,97672.97
2023-07-26T16:09:38.332Z,97649.13
2023-07-26T16:22:08.784Z,97675.38
2023-07-26T16:24:36.136Z,97637.75
2023-07-26T16:27:03.257Z,97695.16
2023-07-26T16:29:31.597Z,97697.56
2023-07-26T16:31:58.952Z,97695.94
2023-07-26T16:34:26.304Z,97696.94
2023-07-26T16:36:53.412Z,97713.75
2023-07-26T16:39:20.567Z,97693.19
2023-07-26T16:41:47.803Z,97695.13
2023-07-26T16:44:14.829Z,97709.75
2023-07-26T16:47:05.260Z,97715.78
2023-07-26T16:49:29.325Z,97679.97
2023-07-26T16:51:56.483Z,97720.53
2023-07-26T16:54:23.943Z,97705.56
2023-07-26T16:56:51.060Z,97697.59
2023-07-26T16:59:18.309Z,97705.53
2023-07-26T17:01:45.679Z,97697.59
2023-07-26T17:04:13.954Z,97719.34
2023-07-26T17:06:43.098Z,97707.09
2023-07-26T17:09:10.372Z,97723.94
2023-07-26T17:11:37.464Z,97758.13
2023-07-26T17:14:04.675Z,97709.25
2023-07-26T17:16:32.453Z,97772.41
2023-07-26T17:18:59.984Z,97773.88
2023-07-26T17:21:27.000Z,97783.03
2023-07-26T17:23:53.987Z,97786.09
2023-07-26T17:26:21.090Z,97787.09
2023-07-26T17:28:48.982Z,97771.50
2023-07-26T17:31:16.122Z,97752.72
2023-07-26T17:33:43.321Z,97772.25
2023-07-26T17:36:12.387Z,97782.03
2023-07-26T17:38:39.726Z,97773.75
2023-07-26T17:41:07.364Z,97752.34
2023-07-26T17:43:35.682Z,97770.91
2023-07-26T17:46:03.667Z,97771.66
2023-07-26T17:48:35.875Z,97777.19
2023-07-26T17:51:02.937Z,97783.38
2023-07-26T17:53:30.969Z,97764.63
2023-07-26T17:55:58.045Z,97783.50
2023-07-26T17:58:25.079Z,97775.78
2023-07-26T18:00:52.168Z,97793.63
2023-07-26T18:03:19.278Z,97785.31
2023-07-26T18:05:49.022Z,97783.22
2023-07-26T18:08:19.016Z,97807.13
2023-07-26T18:10:46.153Z,97824.34
2023-07-26T18:13:13.227Z,97812.38
2023-07-26T18:16:03.081Z,97795.78
2023-07-26T18:18:30.554Z,97840.88
2023-07-26T18:21:04.805Z,97824.06
2023-07-26T18:23:36.052Z,97847.69
2023-07-26T18:26:03.565Z,97851.56
2023-07-26T18:28:30.710Z,97862.53
2023-07-26T18:31:08.511Z,97861.81
2023-07-26T18:33:37.533Z,97844.25
2023-07-26T18:36:04.830Z,97871.31
2023-07-26T18:38:32.029Z,97875.44
2023-07-26T18:41:00.085Z,97891.28
2023-07-26T18:43:27.390Z,97872.25
2023-07-26T18:45:54.453Z,97867.59
2023-07-26T18:48:23.320Z,97894.56
2023-07-26T18:50:51.788Z,97891.22
2023-07-26T18:53:19.174Z,97879.63
2023-07-26T18:55:49.812Z,97885.59
2023-07-26T18:58:17.451Z,97884.38
2023-07-26T19:00:46.002Z,97871.78
2023-07-26T19:03:13.516Z,97859.38
2023-07-26T19:05:41.371Z,97868.13
2023-07-26T19:08:09.336Z,97852.28
2023-07-26T19:10:40.823Z,97858.50
2023-07-26T19:13:09.498Z,97867.72
2023-07-26T19:15:36.922Z,97885.94
2023-07-26T19:18:04.272Z,97868.88
2023-07-26T19:20:31.509Z,97887.88
2023-07-26T19:23:02.032Z,97874.66
2023-07-26T19:25:30.334Z,97896.25
2023-07-26T19:27:57.420Z,97895.88
2023-07-26T19:30:26.779Z,97901.22
2023-07-26T19:32:54.077Z,97908.94
2023-07-26T19:35:21.415Z,97916.00
2023-07-26T19:37:48.504Z,97895.06
2023-07-26T19:40:15.617Z,97904.97
2023-07-26T19:42:42.707Z,97895.00
2023-07-26T19:45:10.341Z,97900.81
2023-07-26T19:47:37.359Z,97898.88
2023-07-26T19:50:05.045Z,97875.56
2023-07-26T19:52:32.199Z,97896.75
2023-07-26T19:54:59.499Z,97919.25
2023-07-26T19:57:26.735Z,97917.66
2023-07-26T19:59:53.835Z,97920.75
2023-07-26T20:02:21.002Z,97929.56
2023-07-26T20:04:48.195Z,97931.19
2023-07-26T20:07:16.290Z,97901.34
2023-07-26T20:09:43.373Z,97934.75
2023-07-26T20:12:10.709Z,97956.56
2023-07-26T20:14:37.943Z,97949.28
2023-07-26T20:17:05.422Z,97976.69
2023-07-26T20:19:32.452Z,97993.94
2023-07-26T20:21:59.437Z,97998.06
2023-07-26T20:24:26.560Z,98015.59
2023-07-26T20:26:53.629Z,98031.22
2023-07-26T20:29:21.416Z,98040.41
2023-07-26T20:31:48.666Z,98045.31
2023-07-26T20:34:15.758Z,98036.66
2023-07-26T20:36:43.015Z,98051.38
2023-07-26T20:39:10.100Z,98057.06
2023-07-26T20:41:37.186Z,98048.88
2023-07-26T20:44:04.292Z,98065.25
2023-07-26T20:46:31.558Z,98067.91
2023-07-26T20:48:58.637Z,98076.03
2023-07-26T20:51:25.704Z,98061.25
2023-07-26T20:53:52.802Z,98061.00
2023-07-26T20:56:19.863Z,98047.94
2023-07-26T20:58:46.956Z,98076.03
2023-07-26T21:01:14.108Z,98066.28
2023-07-26T21:03:41.507Z,98079.00
2023-07-26T21:06:08.688Z,98081.53
2023-07-26T21:08:35.666Z,98085.13
2023-07-26T21:11:02.878Z,98102.03
2023-07-26T21:13:29.944Z,98089.66
2023-07-26T21:15:59.458Z,98103.59
2023-07-26T21:18:27.155Z,98126.84
2023-07-26T21:20:54.532Z,98121.91
2023-07-26T21:23:22.146Z,98141.72
2023-07-26T21:25:50.538Z,98147.75
2023-07-26T21:28:19.148Z,98155.94
2023-07-26T21:30:48.848Z,98150.78
2023-07-26T21:33:17.180Z,98168.16
2023-07-26T21:35:44.731Z,98167.78
2023-07-26T21:38:12.498Z,98147.41
2023-07-26T21:40:39.531Z,98164.19
2023-07-26T21:43:06.876Z,98188.59
2023-07-26T21:45:34.017Z,98206.53
2023-07-26T21:48:02.947Z,98226.38
2023-07-26T21:50:30.684Z,98228.31
2023-07-26T21:52:57.706Z,98232.69
2023-07-26T21:55:25.182Z,98226.78
2023-07-26T21:57:52.265Z,98251.59
2023-07-26T22:00:19.502Z,98255.59
2023-07-26T22:02:46.769Z,98254.19
2023-07-26T22:05:13.851Z,98249.06
2023-07-26T22:07:40.974Z,98200.09
2023-07-26T22:10:08.493Z,98236.84
2023-07-26T22:12:35.690Z,98253.72
2023-07-26T22:15:02.976Z,98252.75
2023-07-26T22:17:33.149Z,98247.53
2023-07-26T22:20:00.180Z,98235.22
2023-07-26T22:22:27.520Z,98197.72
2023-07-26T22:24:54.814Z,98229.41
2023-07-26T22:27:21.886Z,98229.94
2023-07-26T22:29:48.963Z,98242.72
2023-07-26T22:32:16.292Z,98228.78
2023-07-26T22:34:43.618Z,98214.88
2023-07-26T22:37:10.770Z,98223.53
2023-07-26T22:39:37.892Z,98194.81
2023-07-26T22:42:05.422Z,98206.84
2023-07-26T22:44:32.441Z,98226.84
2023-07-26T22:46:59.535Z,98234.09
2023-07-26T22:49:26.685Z,98237.91
2023-07-26T22:51:54.001Z,98222.19
2023-07-26T22:54:22.182Z,98241.88
2023-07-26T22:56:49.370Z,98253.50
2023-07-26T22:59:16.705Z,98256.16
2023-07-26T23:01:43.774Z,98246.78
2023-07-26T23:04:11.050Z,98258.06
2023-07-26T23:06:38.154Z,98258.06
2023-07-26T23:09:05.306Z,98249.28
2023-07-26T23:11:32.696Z,98245.50
2023-07-26T23:13:59.946Z,98248.91
2023-07-26T23:16:27.096Z,98245.50
2023-07-26T23:18:54.072Z,98219.34
2023-07-26T23:21:21.129Z,98234.66
2023-07-26T23:23:48.258Z,98243.25
2023-07-26T23:26:15.314Z,98220.81
2023-07-26T23:28:42.350Z,98253.91
2023-07-26T23:31:10.632Z,98233.28
2023-07-26T23:33:37.773Z,98257.53
2023-07-26T23:36:05.031Z,98257.88
2023-07-26T23:38:32.090Z,98254.78
2023-07-26T23:41:01.138Z,98273.31
2023-07-26T23:43:28.117Z,98269.25
2023-07-26T23:45:55.161Z,98280.81
2023-07-26T23:48:22.456Z,98278.38
2023-07-26T23:50:49.531Z,98269.53
2023-07-26T23:53:16.570Z,98243.31
2023-07-26T23:55:44.810Z,98232.38
2023-07-26T23:58:12.088Z,98237.19
